createdAt,value
2018-05-01T00:00:51.869Z,63.90
2018-05-01T00:03:18.640Z,64.00
2018-05-01T00:05:45.360Z,62.50
2018-05-01T00:08:11.330Z,62.50
2018-05-01T00:10:37.320Z,62.10
2018-05-01T00:13:03.291Z,62.50
2018-05-01T00:15:29.246Z,61.90
2018-05-01T00:17:56.034Z,61.80
2018-05-01T00:20:22.028Z,61.80
2018-05-01T00:22:47.995Z,61.90
2018-05-01T00:25:13.995Z,61.70
2018-05-01T00:27:39.949Z,62.50
2018-05-01T00:30:06.655Z,62.60
2018-05-01T00:32:32.647Z,62.60
2018-05-01T00:34:58.607Z,62.70
2018-05-01T00:37:24.586Z,62.30
2018-05-01T00:39:50.578Z,62.30
2018-05-01T00:42:16.534Z,62.20
2018-05-01T00:44:42.486Z,62.90
2018-05-01T00:47:08.696Z,62.50
2018-05-01T00:49:34.662Z,62.20
2018-05-01T00:52:00.631Z,62.20
2018-05-01T00:54:27.372Z,60.90
2018-05-01T00:56:54.086Z,61.60
2018-05-01T00:59:20.070Z,61.90
2018-05-01T01:01:47.000Z,61.80
2018-05-01T01:04:12.963Z,61.80
2018-05-01T01:06:39.681Z,61.90
2018-05-01T01:09:05.686Z,61.80
2018-05-01T01:11:31.661Z,61.60
2018-05-01T01:13:57.623Z,61.40
2018-05-01T01:16:24.362Z,61.30
2018-05-01T01:18:50.334Z,61.30
2018-05-01T01:21:16.587Z,61.40
2018-05-01T01:23:42.553Z,61.60
2018-05-01T01:26:10.007Z,61.80
2018-05-01T01:28:35.969Z,61.80
2018-05-01T01:31:01.941Z,61.80
2018-05-01T01:33:28.203Z,61.80
2018-05-01T01:35:54.047Z,61.80
2018-05-01T01:38:19.930Z,62.20
2018-05-01T01:40:46.006Z,62.20
2018-05-01T01:43:11.843Z,62.20
2018-05-01T01:45:38.088Z,62.50
2018-05-01T01:48:04.123Z,62.70
2018-05-01T01:50:29.950Z,63.00
2018-05-01T01:52:55.802Z,63.00
2018-05-01T01:55:21.649Z,63.10
2018-05-01T01:57:47.480Z,63.70
2018-05-01T02:00:13.326Z,63.70
2018-05-01T02:02:39.896Z,64.20
2018-05-01T02:05:05.717Z,63.70
2018-05-01T02:07:32.639Z,63.60
2018-05-01T02:09:58.468Z,63.50
2018-05-01T02:12:24.317Z,63.80
2018-05-01T02:14:50.175Z,63.50
2018-05-01T02:17:16.737Z,64.00
2018-05-01T02:19:42.577Z,64.00
2018-05-01T02:22:08.550Z,64.40
2018-05-01T02:24:34.366Z,64.20
2018-05-01T02:27:00.279Z,64.50
2018-05-01T02:29:26.265Z,64.80
2018-05-01T02:31:52.095Z,65.10
2018-05-01T02:34:17.925Z,65.60
2018-05-01T02:36:43.765Z,65.70
2018-05-01T02:39:09.585Z,66.00
2018-05-01T02:41:35.410Z,66.30
2018-05-01T02:44:01.261Z,66.50
2018-05-01T02:46:27.090Z,66.80
2018-05-01T02:48:52.995Z,67.10
2018-05-01T02:51:19.148Z,66.90
2018-05-01T02:53:44.985Z,67.00
2018-05-01T02:56:10.818Z,67.30
2018-05-01T02:58:36.723Z,67.50
2018-05-01T03:01:02.555Z,68.70
2018-05-01T03:03:28.388Z,68.10
2018-05-01T03:05:54.237Z,68.40
2018-05-01T03:08:20.105Z,68.40
2018-05-01T03:10:46.687Z,68.90
2018-05-01T03:13:12.662Z,68.80
2018-05-01T03:15:38.485Z,68.80
2018-05-01T03:18:04.316Z,69.30
2018-05-01T03:20:30.146Z,69.40
2018-05-01T03:22:55.984Z,69.40
2018-05-01T03:25:21.863Z,69.40
2018-05-01T03:27:47.712Z,69.10
2018-05-01T03:30:13.534Z,69.40
2018-05-01T03:32:39.354Z,69.20
2018-05-01T03:35:05.956Z,69.50
2018-05-01T03:37:32.017Z,69.40
2018-05-01T03:39:58.121Z,69.10
2018-05-01T03:42:24.134Z,69.40
2018-05-01T03:44:49.989Z,69.20
2018-05-01T03:47:15.817Z,69.30
2018-05-01T03:49:41.681Z,69.10
2018-05-01T03:52:07.515Z,69.10
2018-05-01T03:54:33.346Z,69.10
2018-05-01T03:56:59.198Z,69.00
2018-05-01T03:59:25.764Z,69.40
2018-05-01T04:01:51.639Z,69.40
2018-05-01T04:04:17.587Z,69.60
2018-05-01T04:06:43.507Z,69.40
2018-05-01T04:09:09.338Z,69.30
2018-05-01T04:11:35.207Z,69.40
2018-05-01T04:14:01.027Z,69.30
2018-05-01T04:16:27.044Z,69.40
2018-05-01T04:18:52.896Z,70.00
2018-05-01T04:21:18.756Z,69.30
2018-05-01T04:23:45.324Z,69.20
2018-05-01T04:26:11.184Z,69.20
2018-05-01T04:28:37.310Z,69.30
2018-05-01T04:31:03.137Z,69.20
2018-05-01T04:33:28.989Z,69.00
2018-05-01T04:35:54.819Z,69.30
2018-05-01T04:38:20.669Z,69.20
2018-05-01T04:40:46.562Z,69.30
2018-05-01T04:43:12.390Z,69.30
2018-05-01T04:45:38.222Z,69.20
2018-05-01T04:48:04.547Z,69.20
2018-05-01T04:50:31.115Z,69.60
2018-05-01T04:52:57.013Z,69.50
2018-05-01T04:55:22.865Z,69.20
2018-05-01T04:57:48.785Z,69.40
2018-05-01T05:00:15.351Z,69.70
2018-05-01T05:02:41.329Z,69.60
2018-05-01T05:05:07.153Z,70.00
2018-05-01T05:07:32.991Z,70.00
2018-05-01T05:09:58.863Z,70.00
2018-05-01T05:12:25.443Z,70.20
2018-05-01T05:14:51.281Z,70.10
2018-05-01T05:17:17.530Z,70.50
2018-05-01T05:19:43.345Z,70.60
2018-05-01T05:22:09.170Z,70.70
2018-05-01T05:24:35.006Z,70.70
2018-05-01T05:27:00.839Z,70.50
2018-05-01T05:29:26.673Z,70.50
2018-05-01T05:31:52.566Z,70.60
2018-05-01T05:34:19.167Z,70.80
2018-05-01T05:36:44.995Z,70.60
2018-05-01T05:39:10.966Z,70.70
2018-05-01T05:41:36.802Z,70.90
2018-05-01T05:44:02.630Z,71.10
2018-05-01T05:46:28.481Z,71.20
2018-05-01T05:48:54.382Z,71.40
2018-05-01T05:51:20.961Z,72.00
2018-05-01T05:53:46.808Z,71.90
2018-05-01T05:56:13.386Z,71.80
2018-05-01T05:58:39.212Z,71.80
2018-05-01T06:01:05.131Z,71.50
2018-05-01T06:03:30.910Z,71.50
2018-05-01T06:05:56.753Z,70.90
2018-05-01T06:08:22.808Z,70.30
2018-05-01T06:10:48.658Z,65.90
2018-05-01T06:13:15.247Z,55.90
2018-05-01T06:15:41.105Z,55.90
2018-05-01T06:18:06.942Z,53.40
2018-05-01T06:20:33.569Z,52.30
2018-05-01T06:23:00.338Z,53.30
2018-05-01T06:25:26.163Z,46.80
2018-05-01T06:27:52.009Z,45.30
2018-05-01T06:30:17.869Z,45.70
2018-05-01T06:32:44.431Z,46.80
2018-05-01T06:35:10.281Z,46.80
2018-05-01T06:37:36.158Z,49.20
2018-05-01T06:40:01.991Z,51.40
2018-05-01T06:42:27.831Z,53.00
2018-05-01T06:44:53.725Z,51.80
2018-05-01T06:47:19.571Z,50.10
2018-05-01T06:49:45.414Z,52.20
2018-05-01T06:52:11.263Z,53.70
2018-05-01T06:54:37.081Z,55.20
2018-05-01T06:57:02.915Z,55.20
2018-05-01T06:59:28.793Z,45.70
2018-05-01T07:01:54.638Z,45.50
2018-05-01T07:04:20.575Z,45.80
2018-05-01T07:06:47.736Z,51.10
2018-05-01T07:09:13.795Z,51.20
2018-05-01T07:11:39.630Z,53.20
2018-05-01T07:14:05.673Z,54.60
2018-05-01T07:16:31.501Z,56.10
2018-05-01T07:18:57.334Z,56.70
2018-05-01T07:21:23.325Z,56.90
2018-05-01T07:23:49.173Z,56.60
2018-05-01T07:26:15.333Z,55.90
2018-05-01T07:28:41.377Z,50.40
2018-05-01T07:31:07.206Z,46.20
2018-05-01T07:33:33.032Z,47.20
2018-05-01T07:35:59.373Z,46.80
2018-05-01T07:38:25.202Z,46.50
2018-05-01T07:40:51.110Z,45.40
2018-05-01T07:43:16.973Z,45.60
2018-05-01T07:45:43.107Z,36.90
2018-05-01T07:48:08.945Z,30.10
2018-05-01T07:50:34.799Z,28.50
2018-05-01T07:53:00.634Z,26.90
2018-05-01T07:55:27.214Z,28.10
2018-05-01T07:57:53.822Z,29.60
2018-05-01T08:00:19.722Z,29.60
2018-05-01T08:02:45.514Z,30.80
2018-05-01T08:05:11.525Z,32.00
2018-05-01T08:07:37.351Z,33.20
2018-05-01T08:10:03.186Z,35.20
2018-05-01T08:12:29.229Z,35.10
2018-05-01T08:14:55.156Z,35.60
2018-05-01T08:17:21.109Z,36.60
2018-05-01T08:19:46.953Z,36.40
2018-05-01T08:22:13.544Z,35.10
2018-05-01T08:24:39.384Z,35.10
2018-05-01T08:27:05.333Z,34.50
2018-05-01T08:29:31.153Z,33.70
2018-05-01T08:31:57.003Z,32.30
2018-05-01T08:34:22.868Z,30.20
2018-05-01T08:36:49.620Z,27.10
2018-05-01T08:39:15.483Z,27.00
2018-05-01T08:41:41.350Z,24.80
2018-05-01T08:44:07.214Z,26.40
2018-05-01T08:46:33.033Z,25.20
2018-05-01T08:48:59.079Z,23.80
2018-05-01T08:51:25.019Z,22.60
2018-05-01T08:53:51.070Z,21.30
2018-05-01T08:56:17.843Z,21.00
2018-05-01T08:58:43.835Z,20.90
2018-05-01T09:01:09.747Z,22.00
2018-05-01T09:03:35.936Z,23.30
2018-05-01T09:06:01.956Z,24.50
2018-05-01T09:08:28.779Z,26.50
2018-05-01T09:10:55.136Z,26.50
2018-05-01T09:13:21.554Z,27.90
2018-05-01T09:15:47.542Z,28.00
2018-05-01T09:18:14.311Z,28.90
2018-05-01T09:20:40.489Z,28.90
2018-05-01T09:23:06.463Z,27.70
2018-05-01T09:25:32.475Z,27.50
2018-05-01T09:27:59.167Z,27.90
2018-05-01T09:30:25.981Z,28.40
2018-05-01T09:32:52.043Z,28.30
2018-05-01T09:35:18.207Z,29.50
2018-05-01T09:37:44.193Z,30.00
2018-05-01T09:40:10.100Z,30.50
2018-05-01T09:42:36.074Z,30.80
2018-05-01T09:45:01.920Z,31.20
2018-05-01T09:47:28.679Z,31.90
2018-05-01T09:49:54.507Z,31.70
2018-05-01T09:52:28.203Z,32.80
2018-05-01T09:54:54.207Z,32.10
2018-05-01T09:57:20.220Z,31.50
2018-05-01T09:59:46.231Z,31.90
2018-05-01T10:02:12.948Z,32.00
2018-05-01T10:04:38.942Z,32.00
2018-05-01T10:07:04.953Z,31.60
2018-05-01T10:09:30.925Z,31.30
2018-05-01T10:11:56.895Z,31.00
2018-05-01T10:14:22.981Z,30.60
2018-05-01T10:16:49.944Z,31.30
2018-05-01T10:19:15.923Z,29.80
2018-05-01T10:21:41.997Z,29.30
2018-05-01T10:24:08.771Z,29.40
2018-05-01T10:26:35.470Z,29.60
2018-05-01T10:29:01.495Z,29.50
2018-05-01T10:31:27.471Z,29.70
2018-05-01T10:33:53.632Z,29.70
2018-05-01T10:36:19.789Z,29.70
2018-05-01T10:38:45.882Z,29.90
2018-05-01T10:41:11.711Z,29.80
2018-05-01T10:43:37.756Z,29.30
2018-05-01T10:46:03.765Z,29.00
2018-05-01T10:48:29.783Z,29.70
2018-05-01T10:50:55.818Z,29.30
2018-05-01T10:53:21.841Z,28.70
2018-05-01T10:55:47.801Z,28.60
2018-05-01T10:58:14.092Z,28.10
2018-05-01T11:00:40.829Z,28.60
2018-05-01T11:03:06.860Z,28.60
2018-05-01T11:05:32.851Z,28.80
2018-05-01T11:07:58.823Z,28.80
2018-05-01T11:10:24.833Z,28.40
2018-05-01T11:12:50.839Z,28.90
2018-05-01T11:15:16.855Z,28.30
2018-05-01T11:17:43.557Z,27.90
2018-05-01T11:20:09.530Z,27.90
2018-05-01T11:22:35.514Z,28.20
2018-05-01T11:25:01.496Z,27.90
2018-05-01T11:27:27.463Z,28.60
2018-05-01T11:29:53.843Z,28.80
2018-05-01T11:32:19.890Z,28.90
2018-05-01T11:34:45.858Z,28.70
2018-05-01T11:37:19.048Z,29.30
2018-05-01T11:39:45.493Z,29.10
2018-05-01T11:42:11.477Z,29.20
2018-05-01T11:44:37.446Z,28.80
2018-05-01T11:47:03.421Z,28.60
2018-05-01T11:49:30.118Z,28.60
2018-05-01T11:51:56.108Z,28.60
2018-05-01T11:54:22.842Z,28.70
2018-05-01T11:56:48.838Z,28.60
2018-05-01T11:59:14.818Z,28.40
2018-05-01T12:01:42.302Z,28.40
2018-05-01T12:04:09.054Z,28.40
2018-05-01T12:06:35.004Z,28.60
2018-05-01T12:09:00.955Z,28.20
2018-05-01T12:11:27.022Z,28.60
2018-05-01T12:13:53.041Z,28.60
2018-05-01T12:16:20.584Z,28.70
2018-05-01T12:18:46.590Z,28.10
2018-05-01T12:21:12.552Z,28.20
2018-05-01T12:23:39.301Z,28.70
2018-05-01T12:26:05.285Z,28.60
2018-05-01T12:28:31.345Z,28.90
2018-05-01T12:30:57.393Z,29.20
2018-05-01T12:33:23.408Z,28.90
2018-05-01T12:35:49.448Z,29.10
2018-05-01T12:38:15.420Z,29.40
2018-05-01T12:40:41.387Z,29.40
2018-05-01T12:43:08.145Z,29.00
2018-05-01T12:45:34.858Z,29.50
2018-05-01T12:48:00.838Z,29.50
2018-05-01T12:50:27.596Z,30.10
2018-05-01T12:52:53.596Z,30.10
2018-05-01T12:55:20.071Z,30.10
2018-05-01T12:57:46.156Z,29.50
2018-05-01T13:00:12.162Z,28.60
2018-05-01T13:02:38.941Z,28.80
2018-05-01T13:05:05.031Z,28.70
2018-05-01T13:07:30.949Z,29.40
2018-05-01T13:09:56.961Z,29.80
2018-05-01T13:12:23.048Z,29.90
2018-05-01T13:14:49.131Z,30.50
2018-05-01T13:17:15.090Z,30.50
2018-05-01T13:19:41.086Z,30.50
2018-05-01T13:22:07.057Z,30.30
2018-05-01T13:24:33.033Z,30.70
2018-05-01T13:26:59.035Z,30.90
2018-05-01T13:29:25.179Z,30.00
2018-05-01T13:31:51.244Z,29.80
2018-05-01T13:34:17.261Z,30.10
2018-05-01T13:36:44.093Z,29.80
2018-05-01T13:39:10.055Z,29.80
2018-05-01T13:41:36.807Z,28.70
2018-05-01T13:44:03.586Z,28.30
2018-05-01T13:46:29.558Z,28.30
2018-05-01T13:48:55.664Z,28.40
2018-05-01T13:51:21.614Z,28.40
2018-05-01T13:53:47.578Z,28.30
2018-05-01T13:56:13.562Z,28.40
2018-05-01T13:58:39.530Z,28.20
2018-05-01T14:01:05.496Z,28.40
2018-05-01T14:03:31.551Z,28.90
2018-05-01T14:05:57.440Z,29.30
2018-05-01T14:08:23.413Z,29.40
2018-05-01T14:10:50.229Z,28.80
2018-05-01T14:13:16.249Z,28.80
2018-05-01T14:15:43.073Z,28.30
2018-05-01T14:18:09.074Z,28.30
2018-05-01T14:20:35.054Z,28.50
2018-05-01T14:23:01.029Z,29.20
2018-05-01T14:25:27.103Z,29.70
2018-05-01T14:27:53.090Z,30.00
2018-05-01T14:30:19.091Z,29.80
2018-05-01T14:32:45.119Z,29.70
2018-05-01T14:35:11.838Z,30.70
2018-05-01T14:37:37.813Z,30.60
2018-05-01T14:40:04.543Z,31.10
2018-05-01T14:42:30.531Z,31.10
2018-05-01T14:44:56.566Z,30.60
2018-05-01T14:47:22.987Z,30.50
2018-05-01T14:49:49.731Z,29.90
2018-05-01T14:52:16.429Z,30.50
2018-05-01T14:54:42.422Z,30.40
2018-05-01T14:57:09.117Z,30.20
2018-05-01T14:59:35.095Z,30.10
2018-05-01T15:02:01.066Z,30.70
2018-05-01T15:04:27.031Z,30.40
2018-05-01T15:06:53.029Z,30.40
2018-05-01T15:09:19.111Z,30.50
2018-05-01T15:11:45.047Z,30.30
2018-05-01T15:14:11.015Z,30.00
2018-05-01T15:16:37.734Z,29.30
2018-05-01T15:19:03.700Z,29.30
2018-05-01T15:21:30.405Z,28.80
2018-05-01T15:23:56.495Z,28.80
2018-05-01T15:26:23.234Z,29.20
2018-05-01T15:28:49.216Z,29.10
2018-05-01T15:31:15.336Z,29.40
2018-05-01T15:33:41.217Z,29.70
2018-05-01T15:36:07.182Z,30.20
2018-05-01T15:38:33.171Z,30.50
2018-05-01T15:40:59.403Z,31.40
2018-05-01T15:43:25.424Z,30.00
2018-05-01T15:45:51.497Z,29.80
2018-05-01T15:48:17.465Z,29.60
2018-05-01T15:50:44.181Z,30.00
2018-05-01T15:53:10.195Z,29.60
2018-05-01T15:55:36.154Z,29.50
2018-05-01T15:58:02.153Z,30.60
2018-05-01T16:00:28.146Z,30.10
2018-05-01T16:02:54.118Z,30.10
2018-05-01T16:05:20.836Z,30.70
2018-05-01T16:07:48.406Z,32.70
2018-05-01T16:10:14.369Z,32.10
2018-05-01T16:12:41.078Z,32.40
2018-05-01T16:15:07.105Z,32.90
2018-05-01T16:17:33.103Z,32.10
2018-05-01T16:19:59.825Z,31.80
2018-05-01T16:22:25.824Z,31.80
2018-05-01T16:24:51.850Z,31.80
2018-05-01T16:27:17.821Z,32.90
2018-05-01T16:29:50.969Z,32.70
2018-05-01T16:32:16.953Z,32.40
2018-05-01T16:34:42.938Z,33.20
2018-05-01T16:37:09.696Z,33.40
2018-05-01T16:39:36.444Z,33.60
2018-05-01T16:42:03.317Z,32.60
2018-05-01T16:44:29.330Z,32.60
2018-05-01T16:46:55.302Z,32.90
2018-05-01T16:49:21.327Z,33.70
2018-05-01T16:51:47.309Z,34.50
2018-05-01T16:54:13.277Z,34.10
2018-05-01T16:56:39.977Z,34.50
2018-05-01T16:59:05.986Z,34.50
2018-05-01T17:01:32.687Z,34.70
2018-05-01T17:03:58.653Z,34.70
2018-05-01T17:06:24.652Z,34.70
2018-05-01T17:08:50.631Z,35.00
2018-05-01T17:11:17.367Z,35.50
2018-05-01T17:13:44.096Z,35.20
2018-05-01T17:16:10.057Z,35.20
2018-05-01T17:18:36.016Z,35.20
2018-05-01T17:21:03.368Z,35.60
2018-05-01T17:23:30.092Z,35.80
2018-05-01T17:25:56.055Z,35.70
2018-05-01T17:28:22.110Z,35.40
2018-05-01T17:30:49.109Z,35.60
2018-05-01T17:33:15.077Z,35.60
2018-05-01T17:35:41.059Z,35.90
2018-05-01T17:38:07.120Z,35.90
2018-05-01T17:40:33.084Z,35.80
2018-05-01T17:42:59.226Z,35.70
2018-05-01T17:45:25.355Z,36.50
2018-05-01T17:47:51.403Z,36.60
2018-05-01T17:50:17.449Z,37.10
2018-05-01T17:52:43.424Z,37.50
2018-05-01T17:55:09.395Z,37.80
2018-05-01T17:57:35.391Z,38.40
2018-05-01T18:00:01.387Z,38.70
2018-05-01T18:02:27.362Z,38.70
2018-05-01T18:04:53.411Z,38.80
2018-05-01T18:07:20.243Z,38.70
2018-05-01T18:09:46.993Z,39.80
2018-05-01T18:12:13.710Z,40.30
2018-05-01T18:14:39.676Z,40.30
2018-05-01T18:17:06.371Z,42.70
2018-05-01T18:19:32.337Z,42.60
2018-05-01T18:21:58.283Z,43.50
2018-05-01T18:24:24.275Z,44.30
2018-05-01T18:26:50.293Z,44.80
2018-05-01T18:29:16.339Z,45.50
2018-05-01T18:31:42.362Z,46.30
2018-05-01T18:34:08.387Z,46.60
2018-05-01T18:36:35.084Z,48.00
2018-05-01T18:39:01.157Z,47.90
2018-05-01T18:41:28.689Z,50.20
2018-05-01T18:43:54.764Z,50.20
2018-05-01T18:46:20.776Z,52.10
2018-05-01T18:48:46.774Z,52.90
2018-05-01T18:51:12.758Z,54.50
2018-05-01T18:53:38.724Z,56.20
2018-05-01T18:56:05.662Z,59.30
2018-05-01T18:58:31.621Z,59.20
2018-05-01T19:00:58.356Z,60.60
2018-05-01T19:03:25.178Z,61.30
2018-05-01T19:05:51.183Z,61.20
2018-05-01T19:08:17.180Z,61.70
2018-05-01T19:10:43.174Z,62.30
2018-05-01T19:13:09.112Z,62.00
2018-05-01T19:15:35.142Z,63.20
2018-05-01T19:18:01.127Z,63.80
2018-05-01T19:20:27.099Z,64.50
2018-05-01T19:22:53.072Z,65.80
2018-05-01T19:25:19.227Z,65.90
2018-05-01T19:27:45.187Z,65.90
2018-05-01T19:30:11.905Z,67.10
2018-05-01T19:32:38.028Z,66.90
2018-05-01T19:35:03.995Z,67.20
2018-05-01T19:37:29.962Z,67.20
2018-05-01T19:39:55.957Z,67.00
2018-05-01T19:42:22.136Z,67.00
2018-05-01T19:44:48.107Z,67.20
2018-05-01T19:47:14.111Z,67.60
2018-05-01T19:49:40.072Z,67.90
2018-05-01T19:52:06.035Z,68.10
2018-05-01T19:54:32.015Z,68.20
2018-05-01T19:56:57.985Z,68.70
2018-05-01T19:59:23.995Z,69.90
2018-05-01T20:01:50.100Z,71.00
2018-05-01T20:04:16.801Z,72.50
2018-05-01T20:06:42.783Z,72.40
2018-05-01T20:09:08.743Z,72.50
2018-05-01T20:11:34.704Z,73.00
2018-05-01T20:14:00.670Z,73.50
2018-05-01T20:16:26.709Z,73.00
2018-05-01T20:18:52.771Z,72.90
2018-05-01T20:21:19.575Z,72.80
2018-05-01T20:23:45.578Z,72.80
2018-05-01T20:26:11.784Z,72.90
2018-05-01T20:28:37.743Z,71.70
2018-05-01T20:31:04.475Z,71.30
2018-05-01T20:33:31.371Z,70.80
2018-05-01T20:35:57.343Z,70.80
2018-05-01T20:38:24.159Z,70.40
2018-05-01T20:40:50.231Z,71.10
2018-05-01T20:43:16.215Z,72.00
2018-05-01T20:45:42.963Z,72.70
2018-05-01T20:48:09.677Z,73.60
2018-05-01T20:50:35.637Z,74.10
2018-05-01T20:53:01.611Z,74.10
2018-05-01T20:55:27.588Z,74.10
2018-05-01T20:57:53.587Z,74.20
2018-05-01T21:00:19.758Z,74.60
2018-05-01T21:02:45.713Z,74.00
2018-05-01T21:05:11.662Z,74.10
2018-05-01T21:07:38.435Z,74.30
2018-05-01T21:10:04.404Z,74.30
2018-05-01T21:12:30.365Z,74.50
2018-05-01T21:14:56.366Z,74.60
2018-05-01T21:17:22.630Z,74.30
2018-05-01T21:19:49.417Z,74.70
2018-05-01T21:22:16.368Z,74.70
2018-05-01T21:24:42.266Z,74.60
2018-05-01T21:27:08.231Z,75.20
2018-05-01T21:29:34.215Z,75.00
2018-05-01T21:32:00.176Z,74.80
2018-05-01T21:34:26.300Z,74.90
2018-05-01T21:36:52.294Z,74.70
2018-05-01T21:39:19.592Z,75.40
2018-05-01T21:41:52.590Z,75.40
2018-05-01T21:44:18.545Z,75.80
2018-05-01T21:46:44.525Z,76.60
2018-05-01T21:49:10.491Z,76.10
2018-05-01T21:51:36.462Z,76.00
2018-05-01T21:54:02.637Z,75.50
2018-05-01T21:56:29.381Z,75.30
2018-05-01T21:58:55.366Z,75.20
2018-05-01T22:01:21.346Z,75.80
2018-05-01T22:03:47.363Z,75.80
2018-05-01T22:06:13.323Z,75.90
2018-05-01T22:08:39.273Z,75.10
2018-05-01T22:11:06.026Z,75.90
2018-05-01T22:13:33.038Z,76.60
2018-05-01T22:15:59.015Z,76.60
2018-05-01T22:18:25.839Z,77.50
2018-05-01T22:20:51.827Z,77.10
2018-05-01T22:23:17.774Z,77.50
2018-05-01T22:25:43.791Z,77.90
2018-05-01T22:28:10.491Z,78.60
2018-05-01T22:30:36.447Z,78.50
2018-05-01T22:33:03.161Z,78.40
2018-05-01T22:35:29.158Z,78.50
2018-05-01T22:37:55.870Z,78.70
2018-05-01T22:40:21.964Z,78.70
2018-05-01T22:42:47.935Z,78.90
2018-05-01T22:45:13.929Z,78.70
2018-05-01T22:47:40.642Z,78.80
2018-05-01T22:50:06.597Z,78.90
2018-05-01T22:52:32.574Z,78.60
2018-05-01T22:54:58.545Z,78.80
2018-05-01T22:57:24.533Z,77.60
2018-05-01T22:59:50.539Z,77.20
2018-05-01T23:02:17.479Z,77.80
2018-05-01T23:04:43.433Z,77.40
2018-05-01T23:07:09.396Z,77.80
2018-05-01T23:09:35.378Z,78.50
2018-05-01T23:12:01.375Z,79.00
2018-05-01T23:14:27.340Z,79.20
2018-05-01T23:16:53.317Z,79.10
2018-05-01T23:19:20.211Z,78.60
2018-05-01T23:21:46.161Z,78.60
2018-05-01T23:24:12.321Z,78.40
2018-05-01T23:26:38.275Z,79.10
2018-05-01T23:29:04.227Z,80.00
2018-05-01T23:31:30.975Z,80.40
2018-05-01T23:33:57.693Z,80.20
2018-05-01T23:36:23.652Z,80.10
2018-05-01T23:38:49.777Z,79.90
2018-05-01T23:41:15.730Z,80.30
2018-05-01T23:43:42.436Z,81.30
2018-05-01T23:46:08.589Z,81.60
2018-05-01T23:48:34.909Z,81.40
2018-05-01T23:51:00.865Z,81.50
2018-05-01T23:53:26.876Z,81.00
2018-05-01T23:55:53.607Z,81.30
2018-05-01T23:58:19.650Z,81.20
